createdAt,value
2023-02-27T00:00:18.769Z,2.30
2023-02-27T00:02:48.100Z,2.30
2023-02-27T00:05:15.711Z,2.20
2023-02-27T00:07:43.208Z,2.30
2023-02-27T00:10:11.575Z,2.30
2023-02-27T00:12:38.945Z,2.30
2023-02-27T00:15:09.948Z,2.30
2023-02-27T00:17:37.595Z,2.30
2023-02-27T00:20:06.234Z,2.30
2023-02-27T00:22:32.991Z,2.30
2023-02-27T00:24:59.821Z,2.20
2023-02-27T00:27:26.621Z,2.30
2023-02-27T00:29:53.323Z,2.20
2023-02-27T00:32:20.190Z,2.20
2023-02-27T00:34:47.489Z,2.20
2023-02-27T00:37:14.407Z,2.10
2023-02-27T00:39:41.084Z,2.10
2023-02-27T00:42:08.203Z,2.10
2023-02-27T00:44:35.176Z,2.10
2023-02-27T00:47:02.098Z,2.10
2023-02-27T00:49:28.843Z,2.00
2023-02-27T00:51:55.623Z,1.90
2023-02-27T00:54:23.847Z,1.90
2023-02-27T00:56:50.667Z,1.90
2023-02-27T00:59:17.551Z,1.90
2023-02-27T01:01:45.392Z,1.80
2023-02-27T01:04:12.320Z,1.80
2023-02-27T01:06:39.141Z,1.80
2023-02-27T01:09:06.403Z,1.70
2023-02-27T01:11:33.630Z,1.60
2023-02-27T01:14:00.576Z,1.60
2023-02-27T01:16:27.579Z,1.60
2023-02-27T01:18:54.741Z,1.60
2023-02-27T01:21:22.857Z,1.60
2023-02-27T01:23:50.202Z,1.60
2023-02-27T01:26:19.326Z,1.60
2023-02-27T01:28:46.106Z,1.60
2023-02-27T01:31:13.319Z,1.50
2023-02-27T01:33:40.133Z,1.50
2023-02-27T01:36:07.320Z,1.50
2023-02-27T01:38:34.454Z,1.40
2023-02-27T01:41:01.275Z,1.50
2023-02-27T01:43:28.041Z,1.40
2023-02-27T01:45:55.420Z,1.40
2023-02-27T01:48:33.348Z,1.40
2023-02-27T01:51:08.566Z,1.30
2023-02-27T01:53:38.007Z,1.30
2023-02-27T01:56:14.934Z,1.30
2023-02-27T01:58:43.060Z,1.30
2023-02-27T02:01:11.276Z,1.30
2023-02-27T02:03:45.915Z,1.20
2023-02-27T02:06:12.757Z,1.30
2023-02-27T02:08:44.277Z,1.20
2023-02-27T02:11:13.373Z,1.20
2023-02-27T02:13:41.135Z,1.20
2023-02-27T02:16:23.435Z,1.20
2023-02-27T02:18:59.073Z,1.30
2023-02-27T02:21:37.800Z,1.30
